Home > Products > Valid Products > MTR

000
SAUS46 KMFR 252109
MTRSXT
SPECI KSXT 252108Z AUTO 20014G24KT M1/4SM FG VV001 08/08 A2971 RMK
AO2 PK WND 19026/2058 RAE03 P0000 T00780078





000
SAUS46 KMFR 252058
MTRSXT
METAR KSXT 252056Z AUTO 21015G25KT 1/4SM RA FG VV002 08/08 A2970 RMK
AO2 PK WND 20038/2000 SLP045 P0021 60039 T00780078 53027





000
SAUS46 KMFR 252033
MTRSXT
SPECI KSXT 252032Z AUTO 20011G26KT M1/4SM RA FG VV002 08/08 A2968
RMK AO2 PK WND 20038/2000 PRESRR P0007 T00780078





000
SAUS46 KMFR 252028
MTRMHS
SPECI KMHS 252024Z AUTO 1 3/4SM +RA BR FEW028 BKN033 OVC046 09/08
A2985 RMK AO2 P0008 T00940083





000
SAUS46 KMFR 252012
MTRSXT
SPECI KSXT 252010Z AUTO 18018G36KT M1/4SM -RA FG VV001 08/08 A2965
RMK AO2 PK WND 20038/2000 P0000 T00780078





000
SAUS46 KMFR 252000
MTRMHS
METAR KMHS 251956Z AUTO VRB03KT 2 1/2SM RA BR FEW021 BKN032 OVC050
09/08 A2985 RMK AO2 SLP117 P0016 T00940083





000
SAUS46 KMFR 251957
MTRSXT
METAR KSXT 251956Z AUTO 18017G34KT M1/4SM -RA FG VV002 08/08 A2964
RMK AO2 PK WND 19037/1921 SLP020 P0005 T00780078





000
SAUS46 KMFR 251857
MTRSXT
METAR KSXT 251856Z AUTO 18019G35KT M1/4SM RA FG VV001 08/08 A2961
RMK AO2 PK WND 19038/1825 SLP010 P0013 T00780078





000
SAUS46 KMFR 251857
MTRSXT
METAR KSXT 251856Z AUTO 18019G35KT M1/4SM RA FG VV001 08/08 A2961
RMK AO2 PK WND 19038/1825 SLP010 P0013 T00780078





000
SAUS46 KMFR 251854
MTRSXT
SPECI KSXT 251853Z AUTO 19016G29KT M1/4SM RA FG VV001 08/08 A2961
RMK AO2 PK WND 19038/1825 P0012





000
SAUS46 KMFR 251854
MTRSXT
SPECI KSXT 251853Z AUTO 19016G29KT M1/4SM RA FG VV001 08/08 A2961
RMK AO2 PK WND 19038/1825 P0012





000
SAUS46 KMFR 251834
MTRMHS
SPECI KMHS 251830Z AUTO 14004KT 2SM RA BR FEW014 BKN024 OVC035 09/08
A2984 RMK AO2 P0009 T00890083





000
SAUS46 KMFR 251834
MTRMHS
SPECI KMHS 251830Z AUTO 14004KT 2SM RA BR FEW014 BKN024 OVC035 09/08
A2984 RMK AO2 P0009 T00890083





000
SAUS46 KMFR 251800
MTRMHS
METAR KMHS 251756Z AUTO VRB03KT 2 1/2SM -RA BR BKN020 BKN025 OVC033
09/08 A2982 RMK AO2 SLP105 P0008 60064 T00940083 10106 20083 51003





000
SAUS46 KMFR 251800
MTRMHS
METAR KMHS 251756Z AUTO VRB03KT 2 1/2SM -RA BR BKN020 BKN025 OVC033
09/08 A2982 RMK AO2 SLP105 P0008 60064 T00940083 10106 20083 51003





000
SAUS46 KMFR 251757
MTRSXT
METAR KSXT 251756Z AUTO 17015G23KT 1/4SM -RA FG VV002 07/07 A2958
RMK AO2 PK WND 20029/1700 SLP002 P0011 60017 T00720072 10089 20061
51019





000
SAUS46 KMFR 251757
MTRSXT
METAR KSXT 251756Z AUTO 17015G23KT 1/4SM -RA FG VV002 07/07 A2958
RMK AO2 PK WND 20029/1700 SLP002 P0011 60017 T00720072 10089 20061
51019





000
SAUS46 KMFR 251755
MTRMHS
SPECI KMHS 251751Z AUTO 00000KT 3SM RA BR FEW012 BKN020 OVC033 09/08
A2982 RMK AO2 P0008





000
SAUS46 KMFR 251755
MTRMHS
SPECI KMHS 251751Z AUTO 00000KT 3SM RA BR FEW012 BKN020 OVC033 09/08
A2982 RMK AO2 P0008





000
SAUS46 KMFR 251734
MTRSXT
SPECI KSXT 251733Z AUTO 18015G28KT 1/4SM -RA FG VV006 07/07 A2957
RMK AO2 PK WND 20029/1700 P0010 T00720072





000
SAUS46 KMFR 251734
MTRSXT
SPECI KSXT 251733Z AUTO 18015G28KT 1/4SM -RA FG VV006 07/07 A2957
RMK AO2 PK WND 20029/1700 P0010 T00720072





000
SAUS46 KMFR 251719
MTRSXT
SPECI KSXT 251718Z AUTO 18018G27KT 1/4SM -RA FG BKN012 BKN023 OVC035
07/07 A2956 RMK AO2 PK WND 20029/1700 P0009 T00670067





000
SAUS46 KMFR 251719
MTRSXT
SPECI KSXT 251718Z AUTO 18018G27KT 1/4SM -RA FG BKN012 BKN023 OVC035
07/07 A2956 RMK AO2 PK WND 20029/1700 P0009 T00670067





000
SAUS46 KMFR 251702
MTRSXT
SPECI KSXT 251701Z AUTO 18017G29KT 1/4SM RA FG FEW015 BKN027 OVC035
07/07 A2957 RMK AO2 PK WND 20029/1700 P0003 T00670067





000
SAUS46 KMFR 251702
MTRSXT
SPECI KSXT 251701Z AUTO 18017G29KT 1/4SM RA FG FEW015 BKN027 OVC035
07/07 A2957 RMK AO2 PK WND 20029/1700 P0003 T00670067





000
SAUS46 KMFR 251659
MTRSXT
SPECI KSXT 251658Z AUTO 17015G33KT 1SM RA BR FEW020 BKN036 OVC050
07/07 A2957 RMK AO2 PRESRR P0001 T00670067





000
SAUS46 KMFR 251659
MTRSXT
SPECI KSXT 251658Z AUTO 17015G33KT 1SM RA BR FEW020 BKN036 OVC050
07/07 A2957 RMK AO2 PRESRR P0001 T00670067





000
SAUS46 KMFR 251658
MTRSXT
METAR KSXT 251656Z AUTO 18017G33KT 4SM -RA BR FEW022 BKN036 OVC050
07/07 A2957 RMK AO2 PK WND 18033/1650 PRESRR SLP997 P0003 T00720067





000
SAUS46 KMFR 251658
MTRSXT
METAR KSXT 251656Z AUTO 18017G33KT 4SM -RA BR FEW022 BKN036 OVC050
07/07 A2957 RMK AO2 PK WND 18033/1650 PRESRR SLP997 P0003 T00720067





000
SAUS46 KMFR 251646
MTRSXT
SPECI KSXT 251645Z AUTO 17019G30KT 3SM -RA BR BKN032 BKN046 OVC055
07/07 A2955 RMK AO2 PK WND 18032/1634 P0002 T00670067





000
SAUS46 KMFR 251646
MTRSXT
SPECI KSXT 251645Z AUTO 17019G30KT 3SM -RA BR BKN032 BKN046 OVC055
07/07 A2955 RMK AO2 PK WND 18032/1634 P0002 T00670067





000
SAUS46 KMFR 251643
MTRSXT
SPECI KSXT 251642Z AUTO 17020G32KT 1 1/2SM -RA BR BKN030 BKN042
OVC060 07/07 A2954 RMK AO2 PK WND 18032/1634 VIS 1/2V5 P0002
T00670067





000
SAUS46 KMFR 251643
MTRSXT
SPECI KSXT 251642Z AUTO 17020G32KT 1 1/2SM -RA BR BKN030 BKN042
OVC060 07/07 A2954 RMK AO2 PK WND 18032/1634 VIS 1/2V5 P0002
T00670067





000
SAUS46 KMFR 251638
MTRSXT
SPECI KSXT 251637Z AUTO 17016G32KT 1/2SM -RA FG BKN028 BKN036 OVC055
07/07 A2954 RMK AO2 PK WND 18032/1634 P0002 T00670067





000
SAUS46 KMFR 251638
MTRSXT
SPECI KSXT 251637Z AUTO 17016G32KT 1/2SM -RA FG BKN028 BKN036 OVC055
07/07 A2954 RMK AO2 PK WND 18032/1634 P0002 T00670067





000
SAUS46 KMFR 251632
MTRSXT
SPECI KSXT 251631Z AUTO 18016G27KT 1/4SM -RA FG SCT011 BKN030 OVC037
07/07 A2955 RMK AO2 PK WND 17027/1607 P0001 T00670067





000
SAUS46 KMFR 251632
MTRSXT
SPECI KSXT 251631Z AUTO 18016G27KT 1/4SM -RA FG SCT011 BKN030 OVC037
07/07 A2955 RMK AO2 PK WND 17027/1607 P0001 T00670067





000
SAUS46 KMFR 251624
MTRSXT
SPECI KSXT 251623Z AUTO 19016G26KT 3/4SM -RA BR FEW016 BKN034 OVC042
07/07 A2955 RMK AO2 PK WND 17027/1607 VIS M1/4V5 P0000 T00670067





000
SAUS46 KMFR 251624
MTRSXT
SPECI KSXT 251623Z AUTO 19016G26KT 3/4SM -RA BR FEW016 BKN034 OVC042
07/07 A2955 RMK AO2 PK WND 17027/1607 VIS M1/4V5 P0000 T00670067





000
SAUS46 KMFR 251622
MTRSXT
SPECI KSXT 251621Z AUTO 18015G26KT 1 1/2SM -RA BR BKN034 OVC042
07/07 A2955 RMK AO2 PK WND 17027/1607 VIS 1/2V5 P0000 T00670067





000
SAUS46 KMFR 251622
MTRSXT
SPECI KSXT 251621Z AUTO 18015G26KT 1 1/2SM -RA BR BKN034 OVC042
07/07 A2955 RMK AO2 PK WND 17027/1607 VIS 1/2V5 P0000 T00670067





000
SAUS46 KMFR 251557
MTRSXT
METAR KSXT 251556Z AUTO 18019G30KT 9SM -RA BKN032 OVC040 07/06 A2954
RMK AO2 PK WND 17035/1506 RAB21 SLP987 P0002 T00720061





000
SAUS46 KMFR 251457
MTRSXT
METAR KSXT 251456Z AUTO 15013G34KT 070V190 10SM BKN043 OVC050 09/04
A2952 RMK AO2 PK WND 16040/1410 SLP979 60001 T00890039 56021





000
SAUS46 KMFR 251400
MTRMHS
METAR KMHS 251356Z AUTO VRB03KT 10SM -RA FEW024 FEW038 OVC046 08/05
A2977 RMK AO2 SLP087 P0016 T00830050





000
SAUS46 KMFR 251357
MTRSXT
METAR KSXT 251356Z AUTO 15021G33KT 120V190 10SM BKN043 OVC050 08/05
A2954 RMK AO2 PK WND 18039/1307 SLP984 T00830050





000
SAUS46 KMFR 251258
MTRSXT
METAR KSXT 251256Z AUTO 16021G35KT 10SM FEW003 SCT045 OVC110 06/06
A2955 RMK AO2 PK WND 17041/1208 RAE20 SLP992 P0001 T00610056





000
SAUS46 KMFR 251255
MTRMHS
SPECI KMHS 251251Z AUTO 2 1/2SM +RA BR FEW021 BKN033 OVC041 09/08
A2973 RMK AO2 P0029





000
SAUS46 KMFR 251248
MTRMHS
SPECI KMHS 251244Z AUTO VRB03KT 2SM +RA BR FEW009 BKN029 OVC039
09/08 A2972 RMK AO2 P0026 T00940083





000
SAUS46 KMFR 251246
MTRSXT
SPECI KSXT 251245Z AUTO 15021G39KT 5SM BR FEW004 BKN048 OVC100 07/07
A2955 RMK AO2 PK WND 17041/1208 RAE20 PRESFR P0001 T00670067





000
SAUS46 KMFR 251244
MTRSXT
SPECI KSXT 251242Z AUTO 15018G39KT 2SM BR FEW004 BKN027 OVC100 07/07
A2956 RMK AO2 PK WND 17041/1208 RAE20 P0001 T00670067





000
SAUS46 KMFR 251236
MTRSXT
SPECI KSXT 251235Z AUTO 15020G28KT 1 1/4SM BR FEW004 BKN029 OVC100
07/07 A2957 RMK AO2 PK WND 17041/1208 VIS 1/2V5 RAE20 P0001
T00670067





000
SAUS46 KMFR 251233
MTRSXT
SPECI KSXT 251232Z AUTO 15018G35KT 120V190 1 3/4SM BR FEW007 BKN034
OVC095 07/07 A2956 RMK AO2 PK WND 17041/1208 RAE20 P0001 T00670067





000
SAUS46 KMFR 251218
MTRSXT
SPECI KSXT 251217Z AUTO 19019G41KT 4SM -RA BR FEW002 BKN030 OVC044
06/06 A2958 RMK AO2 PK WND 17041/1208 P0001 T00610061





000
SAUS46 KMFR 251212
MTRSXT
SPECI KSXT 251210Z AUTO 18021G41KT 3SM -RA BR FEW002 BKN010 OVC046
06/06 A2958 RMK AO2 PK WND 17041/1208 P0001 T00610061





000
SAUS46 KMFR 251207
MTRSXT
SPECI KSXT 251206Z AUTO 18018G38KT 1 3/4SM -RA BR BKN004 BKN014
OVC044 06/06 A2958 RMK AO2 PK WND 18038/1201 P0001 T00610061





000
SAUS46 KMFR 251207
MTRSXT
SPECI KSXT 251206Z AUTO 18018G38KT 1 3/4SM -RA BR BKN004 BKN014
OVC044 06/06 A2958 RMK AO2 PK WND 18038/1201 P0001 T00610061





000
SAUS46 KMFR 251157
MTRSXT
METAR KSXT 251156Z AUTO 19018G36KT 170V240 1/4SM RA FG VV001 07/07
A2959 RMK AO2 PK WND 22038/1137 PRESFR SLP005 P0028 60029 70043
T00670067 10100 20067 56003





000
SAUS46 KMFR 251157
MTRSXT
METAR KSXT 251156Z AUTO 19018G36KT 170V240 1/4SM RA FG VV001 07/07
A2959 RMK AO2 PK WND 22038/1137 PRESFR SLP005 P0028 60029 70043
T00670067 10100 20067 56003





000
SAUS46 KMFR 251100
MTRMHS
METAR KMHS 251056Z AUTO 10SM BKN028 OVC040 11/06 A2973 RMK AO2
SLP068 T01110061





000
SAUS46 KMFR 251100
MTRMHS
METAR KMHS 251056Z AUTO 10SM BKN028 OVC040 11/06 A2973 RMK AO2
SLP068 T01110061





000
SAUS46 KMFR 251057
MTRSXT
METAR KSXT 251056Z AUTO 23011G20KT 210V270 1/4SM -RA FG BKN001
BKN014 OVC065 08/08 A2960 RMK AO2 PK WND 13026/1011 RAB44 SLP004
P0001 T00780078





000
SAUS46 KMFR 251057
MTRSXT
METAR KSXT 251056Z AUTO 23011G20KT 210V270 1/4SM -RA FG BKN001
BKN014 OVC065 08/08 A2960 RMK AO2 PK WND 13026/1011 RAB44 SLP004
P0001 T00780078





000
SAUS46 KMFR 251055
MTRSXT
SPECI KSXT 251054Z AUTO 24009G18KT 200V290 1/4SM -RA FG BKN001
BKN014 OVC065 08/08 A2960 RMK AO2 PK WND 13026/1011 RAB44 PRESRR
P0001





000
SAUS46 KMFR 251055
MTRSXT
SPECI KSXT 251054Z AUTO 24009G18KT 200V290 1/4SM -RA FG BKN001
BKN014 OVC065 08/08 A2960 RMK AO2 PK WND 13026/1011 RAB44 PRESRR
P0001





000
SAUS46 KMFR 251050
MTRSXT
SPECI KSXT 251049Z AUTO 25009G18KT 230V290 1/2SM -RA FG SCT001
BKN014 OVC065 08/08 A2959 RMK AO2 PK WND 13026/1011 RAB44 PRESRR
P0000 T00780078





000
SAUS46 KMFR 251050
MTRSXT
SPECI KSXT 251049Z AUTO 25009G18KT 230V290 1/2SM -RA FG SCT001
BKN014 OVC065 08/08 A2959 RMK AO2 PK WND 13026/1011 RAB44 PRESRR
P0000 T00780078





000
SAUS46 KMFR 251043
MTRSXT
SPECI KSXT 251042Z AUTO 25011G19KT 230V300 1/4SM FG SCT001 BKN060
08/07 A2958 RMK AO2 PK WND 13026/1011 T00780072





000
SAUS46 KMFR 251043
MTRSXT
SPECI KSXT 251042Z AUTO 25011G19KT 230V300 1/4SM FG SCT001 BKN060
08/07 A2958 RMK AO2 PK WND 13026/1011 T00780072





000
SAUS46 KMFR 251036
MTRSXT
SPECI KSXT 251035Z AUTO 23008G18KT 200V270 1/2SM HZ FEW001 OVC060
09/06 A2957 RMK AO2 PK WND 13026/1011 T00890061





000
SAUS46 KMFR 251036
MTRSXT
SPECI KSXT 251035Z AUTO 23008G18KT 200V270 1/2SM HZ FEW001 OVC060
09/06 A2957 RMK AO2 PK WND 13026/1011 T00890061





000
SAUS46 KMFR 250957
MTRSXT
METAR KSXT 250956Z AUTO 12014G25KT 080V150 10SM FEW070 BKN095 08/06
A2957 RMK AO2 PK WND 13026/0943 SLP990 T00830061





000
SAUS46 KMFR 250858
MTRSXT
METAR KSXT 250856Z AUTO 13016G24KT 10SM CLR 09/06 A2960 RMK AO2
PRESFR SLP007 T00890061 58030





000
SAUS46 KMFR 250800
MTRMHS
METAR KMHS 250756Z AUTO 10SM FEW039 11/07 A2982 RMK AO2 SLP101
T01110072 401610078





000
SAUS46 KMFR 250757
MTRSXT
METAR KSXT 250756Z AUTO 13013G20KT 10SM CLR 09/06 A2966 RMK AO2
SLP028 T00940061 401280061





000
SAUS46 KMFR 250657
MTRSXT
METAR KSXT 250656Z AUTO 12015G22KT 10SM CLR 09/06 A2967 RMK AO2
SLP037 T00940061





000
SAUS46 KMFR 250557
MTRSXT
METAR KSXT 250556Z AUTO 14013KT 10SM CLR 10/07 A2970 RMK AO2 SLP046
T01000072 10111 20094 58014





000
SAUS46 KMFR 250457
MTRSXT
METAR KSXT 250456Z AUTO 16009KT 10SM FEW002 10/09 A2972 RMK AO2
SLP053 T01000094





000
SAUS46 KMFR 250445
MTRSXT
SPECI KSXT 250444Z AUTO 16010KT 6SM BR FEW002 10/09 A2972 RMK AO2
T01000094





000
SAUS46 KMFR 250357
MTRSXT
METAR KSXT 250356Z AUTO 16010KT 10SM CLR 10/09 A2973 RMK AO2 SLP056
T01000094





000
SAUS46 KMFR 250357
MTRSXT
METAR KSXT 250356Z AUTO 16010KT 10SM CLR 10/09 A2973 RMK AO2 SLP056
T01000094





000
SAUS46 KMFR 250257
MTRSXT
METAR KSXT 250256Z AUTO 16010KT 10SM CLR 10/09 A2975 RMK AO2 SLP062
T01000094 56013





000
SAUS46 KMFR 250157
MTRSXT
METAR KSXT 250156Z AUTO 15011KT 10SM CLR 11/09 A2975 RMK AO2 SLP061
T01110089





000
SAUS46 KMFR 250057
MTRSXT
METAR KSXT 250056Z AUTO 14010KT 10SM CLR 11/09 A2977 RMK AO2 SLP068
T01110089





000
SAUS46 KMFR 242357
MTRSXT
METAR KSXT 242356Z AUTO 17008KT 10SM CLR 11/09 A2979 RMK AO2 SLP075
60001 T01110089 10128 20067 58017





000
SAUS46 KMFR 242257
MTRSXT
METAR KSXT 242256Z AUTO 19008KT 150V210 10SM FEW020 12/09 A2982 RMK
AO2 SLP083 T01220094





000
SAUS46 KMFR 242248
MTRSXT
SPECI KSXT 242247Z AUTO 19007KT 10SM SCT020 12/09 A2982 RMK AO2
T01220094





000
SAUS46 KMFR 242233
MTRSXT
SPECI KSXT 242231Z AUTO 18005KT 10SM BKN020 13/10 A2983 RMK AO2
T01280100





000
SAUS46 KMFR 242157
MTRSXT
METAR KSXT 242156Z AUTO 15008KT 10SM FEW024 SCT031 12/11 A2983 RMK
AO2 SLP087 T01220106





000
SAUS46 KMFR 242148
MTRSXT
SPECI KSXT 242147Z AUTO 13005KT 10SM SCT024 12/11 A2983 RMK AO2
T01220106





000
SAUS46 KMFR 242057
MTRSXT
METAR KSXT 242056Z AUTO 13008KT 10SM BKN026 OVC034 10/09 A2985 RMK
AO2 SLP094 60001 T01000094 58009





000
SAUS46 KMFR 242006
MTRSXT
SPECI KSXT 242005Z AUTO 12009G17KT 3SM BR BKN023 OVC029 09/09 A2987
RMK AO2 T00940094





000
SAUS46 KMFR 242003
MTRSXT
SPECI KSXT 242002Z AUTO 12011G19KT 1 1/2SM BR BKN023 OVC029 09/09
A2987 RMK AO2 T00940094





000
SAUS46 KMFR 241957
MTRSXT
METAR KSXT 241956Z AUTO 12012G19KT 3/4SM BR FEW001 OVC025 09/09
A2986 RMK AO2 VIS 1/4V1 3/4 SLP103 T00890089





000
SAUS46 KMFR 241957
MTRSXT
METAR KSXT 241956Z AUTO 12012G19KT 3/4SM BR FEW001 OVC025 09/09
A2986 RMK AO2 VIS 1/4V1 3/4 SLP103 T00890089





000
SAUS46 KMFR 241947
MTRSXT
SPECI KSXT 241946Z AUTO 13011KT 1SM BR FEW001 BKN023 OVC029 09/09
A2988 RMK AO2 T00890089





000
SAUS46 KMFR 241947
MTRSXT
SPECI KSXT 241946Z AUTO 13011KT 1SM BR FEW001 BKN023 OVC029 09/09
A2988 RMK AO2 T00890089





000
SAUS46 KMFR 241913
MTRSXT
SPECI KSXT 241912Z AUTO 13011KT M1/4SM FG SCT008 OVC021 08/08 A2988
RMK AO2 T00780078





000
SAUS46 KMFR 241900
MTRMHS
METAR KMHS 241856Z AUTO 00000KT 10SM OVC027 12/09 A3001 RMK AO2
SLP172 T01170094





000
SAUS46 KMFR 241857
MTRSXT
METAR KSXT 241856Z AUTO 13011KT M1/4SM FG BKN010 OVC022 07/07 A2988
RMK AO2 RAE14 SLP110 P0001 T00720072





000
SAUS46 KMFR 241855
MTRSXT
SPECI KSXT 241854Z AUTO 14012KT M1/4SM FG BKN010 OVC022 07/07 A2988
RMK AO2 RAE14 P0001





000
SAUS46 KMFR 241843
MTRSXT
SPECI KSXT 241841Z AUTO 13010KT M1/4SM FG VV006 07/07 A2989 RMK AO2
RAE14 P0001 T00720072





000
SAUS46 KMFR 241807
MTRSXT
SPECI KSXT 241806Z AUTO 13014G21KT M1/4SM -RA FG VV001 07/07 A2988
RMK AO2 P0001 T00670067





000
SAUS46 KMFR 241757
MTRSXT
METAR KSXT 241756Z AUTO 12011G19KT M1/4SM -RA FG VV004 07/07 A2988
RMK AO2 RAB34 SLP112 P0002 60013 T00670067 10072 20061 56014





000
SAUS46 KMFR 241744
MTRSXT
SPECI KSXT 241743Z AUTO 12012G19KT M1/4SM -RA FG BKN007 OVC025 07/07
A2987 RMK AO2 RAB34 P0000 T00670067





000
SAUS46 KMFR 241730
MTRSXT
SPECI KSXT 241729Z AUTO 12012G18KT 1/4SM FG FEW003 BKN011 OVC027
07/07 A2989 RMK AO2 T00670067





000
SAUS46 KMFR 241723
MTRSXT
SPECI KSXT 241722Z AUTO 11011G19KT 1/4SM FG BKN004 OVC026 07/07
A2989 RMK AO2 T00670067





000
SAUS46 KMFR 241709
MTRSXT
SPECI KSXT 241708Z AUTO 12010G16KT 1/4SM FG FEW005 BKN011 OVC050
07/07 A2989 RMK AO2 T00670067





000
SAUS46 KMFR 241657
MTRSXT
METAR KSXT 241656Z AUTO 11009KT 1/4SM FG FEW003 BKN018 OVC055 07/07
A2989 RMK AO2 RAE1558 SLP115 P0000 T00670067





000
SAUS46 KMFR 241642
MTRSXT
SPECI KSXT 241641Z AUTO 12008KT 1/4SM FG FEW003 BKN011 OVC031 07/07
A2990 RMK AO2 RAE1558 P0000 T00670067





000
SAUS46 KMFR 241629
MTRSXT
SPECI KSXT 241628Z AUTO 11007G15KT 1/4SM FG BKN007 OVC029 07/07
A2990 RMK AO2 RAE1558 P0000 T00670067





000
SAUS46 KMFR 241600
MTRMHS
METAR KMHS 241556Z AUTO 00000KT 10SM BKN026 OVC032 10/08 A3001 RMK
AO2 SLP175 T01000083





000
SAUS46 KMFR 241557
MTRSXT
METAR KSXT 241556Z AUTO 10008KT M1/4SM -RA FG VV002 06/06 A2991 RMK
AO2 RAE25B35 SLP125 P0001 T00610061





000
SAUS46 KMFR 241541
MTRSXT
SPECI KSXT 241540Z AUTO 12008G14KT 080V160 M1/4SM -RA FG VV004 06/06
A2993 RMK AO2 RAE25B35 P0001 T00610061





000
SAUS46 KMFR 241533
MTRSXT
SPECI KSXT 241532Z AUTO 12008KT M1/4SM FG FEW002 OVC013 06/06 A2992
RMK AO2 RAE25 P0001 T00610061





000
SAUS46 KMFR 241526
MTRSXT
SPECI KSXT 241525Z AUTO 11008G16KT 1/4SM FG FEW002 OVC015 06/06
A2993 RMK AO2 RAE25 P0001 T00610061





000
SAUS46 KMFR 241457
MTRSXT
METAR KSXT 241456Z AUTO 11010KT 1/4SM -RA FG VV016 06/06 A2992 RMK
AO2 SLP130 P0005 60010 T00610061 58016





000
SAUS46 KMFR 241437
MTRSXT
SPECI KSXT 241436Z AUTO 11012KT 1/4SM -RA FG FEW002 BKN018 OVC043
06/06 A2994 RMK AO2 P0003 T00610061





000
SAUS46 KMFR 241437
MTRSXT
SPECI KSXT 241436Z AUTO 11012KT 1/4SM -RA FG FEW002 BKN018 OVC043
06/06 A2994 RMK AO2 P0003 T00610061





000
SAUS46 KMFR 241423
MTRSXT
SPECI KSXT 241422Z AUTO 11009KT 1/4SM -RA FG FEW002 BKN008 OVC043
06/06 A2995 RMK AO2 P0001 T00610061





000
SAUS46 KMFR 241423
MTRSXT
SPECI KSXT 241422Z AUTO 11009KT 1/4SM -RA FG FEW002 BKN008 OVC043
06/06 A2995 RMK AO2 P0001 T00610061





000
SAUS46 KMFR 241400
MTRMHS
METAR KMHS 241356Z AUTO 00000KT 10SM OVC023 09/08 A2998 RMK AO2
RAE1257 SLP167 P0000 T00890078





000
SAUS46 KMFR 241357
MTRSXT
METAR KSXT 241356Z AUTO 12009G16KT 1/4SM -RA FG VV002 06/06 A2996
RMK AO2 SLP142 P0003 T00610061





000
SAUS46 KMFR 241333
MTRSXT
SPECI KSXT 241331Z AUTO 12008KT 1/4SM -RA FG VV002 06/06 A2997 RMK
AO2 P0001 T00610061





000
SAUS46 KMFR 241300
MTRMHS
METAR KMHS 241256Z AUTO 00000KT 10SM -RA FEW005 OVC025 08/08 A2999
RMK AO2 RAB23E24B40 SLP171 P0001 T00830078





000
SAUS46 KMFR 241257
MTRSXT
METAR KSXT 241256Z AUTO 12008KT 1/4SM -RA FG VV001 06/06 A2997 RMK
AO2 RAE03B16 SLP146 P0002 T00610061





000
SAUS46 KMFR 241206
MTRSXT
SPECI KSXT 241205Z AUTO 13012KT 1/4SM FG VV001 06/06 A2997 RMK AO2
RAE03 P0000 T00610061





000
SAUS46 KMFR 241157
MTRSXT
METAR KSXT 241156Z AUTO 13011KT 1/4SM -RA FG VV002 06/06 A2998 RMK
AO2 SLP143 P0002 60012 70063 T00610061 10089 20061 56010





000
SAUS46 KMFR 241155
MTRSXT
SPECI KSXT 241154Z AUTO 12011KT 1/4SM -RA FG VV004 06/06 A2998 RMK
AO2 P0002





000
SAUS46 KMFR 241143
MTRSXT
SPECI KSXT 241142Z AUTO 13012KT 1/4SM -RA FG BKN012 OVC024 06/06
A2998 RMK AO2 P0002 T00610061





000
SAUS46 KMFR 241123
MTRSXT
SPECI KSXT 241122Z AUTO 13011KT 1/4SM -RA FG BKN024 OVC040 06/06
A2999 RMK AO2 P0001 T00610061





000
SAUS46 KMFR 241057
MTRSXT
METAR KSXT 241056Z AUTO 13009KT 1/2SM -RA FG BKN022 OVC032 06/06
A2999 RMK AO2 SLP149 P0002 T00610061





000
SAUS46 KMFR 241057
MTRSXT
METAR KSXT 241056Z AUTO 13009KT 1/2SM -RA FG BKN022 OVC032 06/06
A2999 RMK AO2 SLP149 P0002 T00610061





000
SAUS46 KMFR 241024
MTRSXT
SPECI KSXT 241023Z AUTO 13008KT 1/4SM -RA FG BKN027 OVC048 06/06
A3000 RMK AO2 P0001 T00610061





000
SAUS46 KMFR 240957
MTRSXT
METAR KSXT 240956Z AUTO 13008KT 1/4SM -RA FG OVC043 07/07 A3001 RMK
AO2 SLP155 P0003 T00670067





000
SAUS46 KMFR 240957
MTRSXT
METAR KSXT 240956Z AUTO 13008KT 1/4SM -RA FG OVC043 07/07 A3001 RMK
AO2 SLP155 P0003 T00670067





000
SAUS46 KMFR 240952
MTRSXT
SPECI KSXT 240951Z AUTO 13007KT 1/4SM -RA FG OVC045 07/07 A3001 RMK
AO2 P0003





000
SAUS46 KMFR 240934
MTRSXT
SPECI KSXT 240933Z AUTO 14006KT 1/2SM -RA FG FEW013 BKN034 OVC048
07/07 A3002 RMK AO2 P0002 T00670067





000
SAUS46 KMFR 240920
MTRSXT
SPECI KSXT 240919Z AUTO 12006KT 1/4SM -RA FG BKN018 OVC040 07/07
A3002 RMK AO2 P0002 T00670067





000
SAUS46 KMFR 240911
MTRSXT
SPECI KSXT 240910Z AUTO 13007KT 1/4SM -RA FG BKN014 OVC038 07/07
A3002 RMK AO2 P0001 T00720067





000
SAUS46 KMFR 240857
MTRSXT
METAR KSXT 240856Z AUTO 13007KT 1/4SM -RA FG OVC036 07/07 A3002 RMK
AO2 SLP159 P0003 60005 T00720072 50001





000
SAUS46 KMFR 240820
MTRSXT
SPECI KSXT 240819Z AUTO 13006KT 1/4SM -RA FG FEW021 SCT030 OVC040
07/07 A3001 RMK AO2 P0001 T00720072





000
SAUS46 KMFR 240814
MTRSXT
SPECI KSXT 240813Z AUTO 13005KT 1 1/4SM -RA BR FEW030 OVC041 07/07
A3002 RMK AO2 P0000 T00720072





000
SAUS46 KMFR 240814
MTRSXT
SPECI KSXT 240813Z AUTO 13005KT 1 1/4SM -RA BR FEW030 OVC041 07/07
A3002 RMK AO2 P0000 T00720072





000
SAUS46 KMFR 240809
MTRSXT
SPECI KSXT 240808Z AUTO 14006KT 2 1/2SM -RA BR SCT030 OVC041 07/07
A3002 RMK AO2 P0000 T00720072





000
SAUS46 KMFR 240809
MTRSXT
SPECI KSXT 240808Z AUTO 14006KT 2 1/2SM -RA BR SCT030 OVC041 07/07
A3002 RMK AO2 P0000 T00720072





000
SAUS46 KMFR 240757
MTRSXT
METAR KSXT 240756Z AUTO 15005KT 1/2SM -RA FG FEW007 BKN030 OVC038
07/07 A3003 RMK AO2 RAB03 SLP160 P0002 T00720072 400940072





000
SAUS46 KMFR 240754
MTRSXT
SPECI KSXT 240753Z AUTO 15006KT 1/2SM -RA FG SCT005 OVC030 07/07
A3002 RMK AO2 RAB03 P0002





000
SAUS46 KMFR 240726
MTRSXT
SPECI KSXT 240724Z AUTO 16006KT 1/4SM -RA FG VV002 07/07 A3002 RMK
AO2 RAB03 P0001 T00720072





000
SAUS46 KMFR 240707
MTRSXT
SPECI KSXT 240706Z AUTO 14006KT 1/2SM -RA FG VV002 08/08 A3002 RMK
AO2 RAB03 P0000 T00780078





000
SAUS46 KMFR 240658
MTRSXT
METAR KSXT 240656Z AUTO 14006KT 1/4SM FG VV002 08/07 A3002 RMK AO2
SLP155 T00780072





000
SAUS46 KMFR 240620
MTRMHS
SPECI KMHS 240616Z AUTO 00000KT 6SM -RA BR BKN005 OVC070 08/07 A3007
RMK AO2 P0001 T00780067





000
SAUS46 KMFR 240615
MTRSXT
SPECI KSXT 240614Z AUTO 17009KT 1/4SM FG VV002 08/07 A3001 RMK AO2
T00780072





000
SAUS46 KMFR 240606
MTRSXT
SPECI KSXT 240605Z AUTO 18009KT 1/2SM FG VV002 09/07 A3001 RMK AO2
T00890072





000
SAUS46 KMFR 240557
MTRSXT
METAR KSXT 240556Z AUTO 17009KT 1 1/4SM BR OVC004 08/07 A3001 RMK
AO2 SLP154 T00780072 10089 20072 50002





000
SAUS46 KMFR 240526
MTRSXT
SPECI KSXT 240525Z AUTO 17009KT 3SM BR BKN005 OVC012 07/07 A3001 RMK
AO2 T00720072





000
SAUS46 KMFR 240524
MTRSXT
SPECI KSXT 240523Z AUTO 16008KT 1 1/2SM BR BKN005 OVC011 07/07 A3001
RMK AO2 T00720072





000
SAUS46 KMFR 240504
MTRSXT
SPECI KSXT 240503Z AUTO 18008KT 3/4SM BR BKN007 OVC011 07/07 A3002
RMK AO2 T00720072





000
SAUS46 KMFR 240501
MTRSXT
SPECI KSXT 240459Z AUTO 16007KT 1 3/4SM BR OVC009 07/07 A3002 RMK
AO2 VIS 3/4V4 T00720072





000
SAUS46 KMFR 240501
MTRSXT
SPECI KSXT 240459Z AUTO 16007KT 1 3/4SM BR OVC009 07/07 A3002 RMK
AO2 VIS 3/4V4 T00720072





000
SAUS46 KMFR 240500
MTRMHS
METAR KMHS 240456Z AUTO 00000KT 6SM -RA BR FEW002 SCT016 OVC055
07/07 A3007 RMK AO2 SLP200 P0005 T00720067





000
SAUS46 KMFR 240500
MTRMHS
METAR KMHS 240456Z AUTO 00000KT 6SM -RA BR FEW002 SCT016 OVC055
07/07 A3007 RMK AO2 SLP200 P0005 T00720067





000
SAUS46 KMFR 240458
MTRSXT
METAR KSXT 240456Z AUTO 17008KT 2SM BR OVC011 07/07 A3002 RMK AO2
VIS 1 1/4V4 SLP156 T00720072





000
SAUS46 KMFR 240458
MTRSXT
METAR KSXT 240456Z AUTO 17008KT 2SM BR OVC011 07/07 A3002 RMK AO2
VIS 1 1/4V4 SLP156 T00720072





000
SAUS46 KMFR 240439
MTRSXT
SPECI KSXT 240438Z AUTO 18006KT 1 1/4SM BR OVC011 07/07 A3001 RMK
AO2 T00720072





000
SAUS46 KMFR 240437
MTRSXT
SPECI KSXT 240436Z AUTO 16007KT 2SM BR FEW006 OVC011 07/07 A3001 RMK
AO2 T00720072





000
SAUS46 KMFR 240427
MTRSXT
SPECI KSXT 240426Z AUTO 17006KT 10SM OVC013 07/07 A3001 RMK AO2
T00720072





000
SAUS46 KMFR 240357
MTRSXT
METAR KSXT 240356Z AUTO 16007KT 9SM BKN017 OVC022 07/07 A3000 RMK
AO2 SLP151 T00720072





000
SAUS46 KMFR 240357
MTRSXT
METAR KSXT 240356Z AUTO 16007KT 9SM BKN017 OVC022 07/07 A3000 RMK
AO2 SLP151 T00720072





000
SAUS46 KMFR 240309
MTRSXT
SPECI KSXT 240307Z AUTO 22004KT 10SM BKN023 BKN028 07/07 A3001 RMK
AO2 T00720067





000
SAUS46 KMFR 240309
MTRSXT
SPECI KSXT 240307Z AUTO 22004KT 10SM BKN023 BKN028 07/07 A3001 RMK
AO2 T00720067





000
SAUS46 KMFR 240257
MTRSXT
METAR KSXT 240256Z AUTO 21006KT 10SM SCT025 07/07 A3001 RMK AO2
SLP152 T00720067 52004





000
SAUS46 KMFR 240257
MTRSXT
METAR KSXT 240256Z AUTO 21006KT 10SM SCT025 07/07 A3001 RMK AO2
SLP152 T00720067 52004





000
SAUS46 KMFR 240233
MTRSXT
SPECI KSXT 240231Z AUTO 20005KT 10SM SCT025 SCT031 BKN060 07/07
A3000 RMK AO2 T00720067





000
SAUS46 KMFR 240233
MTRSXT
SPECI KSXT 240231Z AUTO 20005KT 10SM SCT025 SCT031 BKN060 07/07
A3000 RMK AO2 T00720067





000
SAUS46 KMFR 240157
MTRSXT
METAR KSXT 240156Z AUTO 20004KT 10SM BKN017 OVC023 07/07 A3000 RMK
AO2 SLP151 T00720067





000
SAUS46 KMFR 240157
MTRSXT
METAR KSXT 240156Z AUTO 20004KT 10SM BKN017 OVC023 07/07 A3000 RMK
AO2 SLP151 T00720067





000
SAUS46 KMFR 240126
MTRSXT
SPECI KSXT 240125Z AUTO 19007KT 10SM SCT022 BKN028 OVC042 07/07
A3000 RMK AO2 T00720067





000
SAUS46 KMFR 240058
MTRSXT
METAR KSXT 240056Z AUTO 20008G14KT 10SM FEW002 BKN031 BKN100 07/07
A2999 RMK AO2 SLP148 T00720072





000
SAUS46 KMFR 240053
MTRSXT
SPECI KSXT 240052Z AUTO 20008KT 10SM FEW002 SCT031 BKN100 07/07
A2999 RMK AO2





000
SAUS46 KMFR 240036
MTRSXT
SPECI KSXT 240035Z AUTO 21009KT 9SM BKN002 08/07 A2999 RMK AO2
T00780072





000
SAUS46 KMFR 240027
MTRSXT
SPECI KSXT 240026Z AUTO 20010KT 2SM BR BKN002 08/08 A2998 RMK AO2
VIS 1V5 T00780078





000
SAUS46 KMFR 240022
MTRSXT
SPECI KSXT 240020Z AUTO 18011KT 1SM BR VV002 08/08 A2998 RMK AO2 VIS
1/4V4 T00780078





000
SAUS46 KMFR 240000
MTRMHS
METAR KMHS 232356Z AUTO 00000KT 10SM -RA OVC050 10/09 A3008 RMK AO2
SLP197 P0003 60013 T01000089 10117 20094 51006





000
SAUS46 KMFR 232357
MTRSXT
METAR KSXT 232356Z AUTO 17012KT M1/4SM FG VV001 09/09 A2998 RMK AO2
SLP140 60001 T00890089 10094 20078 58002





000
SAUS46 KMFR 232300
MTRMHS
METAR KMHS 232256Z AUTO 00000KT 10SM -RA SCT036 OVC065 10/09 A3007
RMK AO2 SLP197 P0002 T01000089





000
SAUS46 KMFR 232258
MTRSXT
METAR KSXT 232256Z AUTO 18012KT M1/4SM FG VV001 09/09 A2999 RMK AO2
SLP141 T00890089





000
SAUS46 KMFR 232250
MTRSXT
SPECI KSXT 232249Z AUTO 17013KT M1/4SM FG VV001 09/09 A2999 RMK AO2
T00890089





000
SAUS46 KMFR 232226
MTRSXT
SPECI KSXT 232225Z AUTO 18010KT 1/4SM FG BKN002 BKN016 OVC075 09/08
A2999 RMK AO2 T00890083





000
SAUS46 KMFR 232223
MTRSXT
SPECI KSXT 232222Z AUTO 18009G16KT 1SM BR BKN002 BKN016 OVC075 08/08
A3000 RMK AO2 VIS M1/4V5 T00830083





000
SAUS46 KMFR 232220
MTRSXT
SPECI KSXT 232219Z AUTO 19007G16KT 3SM BR BKN003 BKN015 OVC070 08/08
A3000 RMK AO2 T00830083





000
SAUS46 KMFR 232214
MTRSXT
SPECI KSXT 232213Z AUTO 21009G16KT 1 3/4SM BR BKN003 BKN015 OVC070
08/08 A3000 RMK AO2 T00830078





000
SAUS46 KMFR 232205
MTRSXT
SPECI KSXT 232203Z AUTO VRB04KT 2 1/2SM BR FEW003 BKN013 OVC090
08/08 A3000 RMK AO2 T00780078





000
SAUS46 KMFR 232200
MTRMHS
METAR KMHS 232156Z AUTO 00000KT 10SM -RA BKN050 OVC065 10/09 A3007
RMK AO2 RAB28 SLP196 P0001 T01000089





000
SAUS46 KMFR 232157
MTRSXT
METAR KSXT 232156Z AUTO VRB05KT 1 3/4SM BR FEW003 BKN020 OVC090
08/08 A3001 RMK AO2 VIS 3/4V5 SLP149 T00830083





000
SAUS46 KMFR 232147
MTRSXT
SPECI KSXT 232146Z AUTO VRB04KT 2 1/2SM BR FEW006 BKN016 BKN050
08/08 A3001 RMK AO2 VIS 3/4V5 T00830083





000
SAUS46 KMFR 232147
MTRSXT
SPECI KSXT 232146Z AUTO VRB04KT 2 1/2SM BR FEW006 BKN016 BKN050
08/08 A3001 RMK AO2 VIS 3/4V5 T00830083





000
SAUS46 KMFR 232138
MTRSXT
SPECI KSXT 232136Z AUTO 23008KT 190V260 3SM BR FEW002 BKN045 OVC095
08/08 A3000 RMK AO2 T00780078





000
SAUS46 KMFR 232133
MTRSXT
SPECI KSXT 232132Z AUTO 21007KT 1 1/2SM BR SCT002 BKN015 OVC050
08/08 A3000 RMK AO2 VIS 3/4V5 T00830078





000
SAUS46 KMFR 232128
MTRSXT
SPECI KSXT 232127Z AUTO 20007KT 1/2SM FG SCT002 BKN015 OVC038 08/08
A3000 RMK AO2 T00830083





000
SAUS46 KMFR 232101 COR
MTRMHS
METAR KMHS 232056Z AUTO 00000KT 10SM FEW041 SCT070 OVC090 11/09
A3006 RMK AO2 RAE44 SLP188 P0002 60007 T01110094 58004





000
SAUS46 KMFR 232057
MTRSXT
METAR KSXT 232056Z AUTO VRB04KT 1/4SM FG VV002 08/08 A2999 RMK AO2
RAB35E49 SLP144 P0001 60001 T00830083 50009





000
SAUS46 KMFR 231958
MTRSXT
METAR KSXT 231956Z AUTO VRB03KT 1/4SM FG BKN002 BKN008 OVC016 08/08
A2999 RMK AO2 SLP144 T00830083





000
SAUS46 KMFR 231958
MTRSXT
METAR KSXT 231956Z AUTO VRB03KT 1/4SM FG BKN002 BKN008 OVC016 08/08
A2999 RMK AO2 SLP144 T00830083





000
SAUS46 KMFR 231953
MTRSXT
SPECI KSXT 231952Z AUTO 1/4SM FG BKN004 BKN008 OVC016 09/09 A2999
RMK AO2





000
SAUS46 KMFR 231953
MTRSXT
SPECI KSXT 231952Z AUTO 1/4SM FG BKN004 BKN008 OVC016 09/09 A2999
RMK AO2





000
SAUS46 KMFR 231948
MTRSXT
SPECI KSXT 231947Z AUTO VRB03KT 3/4SM BR SCT004 BKN008 OVC016 09/09
A2999 RMK AO2 T00890089





000
SAUS46 KMFR 231948
MTRSXT
SPECI KSXT 231947Z AUTO VRB03KT 3/4SM BR SCT004 BKN008 OVC016 09/09
A2999 RMK AO2 T00890089





000
SAUS46 KMFR 231943
MTRSXT
SPECI KSXT 231942Z AUTO VRB05KT 1SM BR FEW004 BKN010 OVC022 09/09
A2999 RMK AO2 T00890089





000
SAUS46 KMFR 231943
MTRSXT
SPECI KSXT 231942Z AUTO VRB05KT 1SM BR FEW004 BKN010 OVC022 09/09
A2999 RMK AO2 T00890089





000
SAUS46 KMFR 231938
MTRSXT
SPECI KSXT 231937Z AUTO VRB05KT 3/4SM BR FEW006 BKN016 OVC020 09/09
A2999 RMK AO2 T00890089





000
SAUS46 KMFR 231938
MTRSXT
SPECI KSXT 231937Z AUTO VRB05KT 3/4SM BR FEW006 BKN016 OVC020 09/09
A2999 RMK AO2 T00890089





000
SAUS46 KMFR 231930
MTRSXT
SPECI KSXT 231928Z AUTO VRB03KT 1/2SM FG BKN008 BKN014 OVC020 09/09
A2999 RMK AO2 T00890089





000
SAUS46 KMFR 231922
MTRSXT
SPECI KSXT 231921Z AUTO VRB03KT 3/4SM BR SCT008 BKN011 OVC022 09/09
A2998 RMK AO2 T00890089





000
SAUS46 KMFR 231922
MTRSXT
SPECI KSXT 231921Z AUTO VRB03KT 3/4SM BR SCT008 BKN011 OVC022 09/09
A2998 RMK AO2 T00890089





000
SAUS46 KMFR 231917
MTRSXT
SPECI KSXT 231915Z AUTO VRB04KT 1 1/2SM BR SCT008 BKN013 OVC018
08/08 A2997 RMK AO2 VIS 1V3 T00830083





000
SAUS46 KMFR 231917
MTRSXT
SPECI KSXT 231915Z AUTO VRB04KT 1 1/2SM BR SCT008 BKN013 OVC018
08/08 A2997 RMK AO2 VIS 1V3 T00830083





000
SAUS46 KMFR 231909
MTRSXT
SPECI KSXT 231908Z AUTO VRB06KT 2SM BR SCT008 OVC017 08/08 A2998 RMK
AO2 T00830083





000
SAUS46 KMFR 231909
MTRSXT
SPECI KSXT 231908Z AUTO VRB06KT 2SM BR SCT008 OVC017 08/08 A2998 RMK
AO2 T00830083





000
SAUS46 KMFR 231857
MTRSXT
METAR KSXT 231856Z AUTO VRB04KT 1 3/4SM BR FEW010 BKN019 OVC023
08/08 A2998 RMK AO2 VIS 1V5 SLP139 T00830083





000
SAUS46 KMFR 231857
MTRSXT
METAR KSXT 231856Z AUTO VRB04KT 1 3/4SM BR FEW010 BKN019 OVC023
08/08 A2998 RMK AO2 VIS 1V5 SLP139 T00830083





000
SAUS46 KMFR 231849
MTRSXT
SPECI KSXT 231847Z AUTO VRB05KT 2SM BR FEW004 FEW010 OVC019 08/08
A2997 RMK AO2 T00830078





000
SAUS46 KMFR 231849
MTRSXT
SPECI KSXT 231847Z AUTO VRB05KT 2SM BR FEW004 FEW010 OVC019 08/08
A2997 RMK AO2 T00830078





000
SAUS46 KMFR 231844
MTRSXT
SPECI KSXT 231843Z AUTO VRB06KT 1 1/4SM BR SCT010 OVC019 08/08 A2997
RMK AO2 T00830083





000
SAUS46 KMFR 231844
MTRSXT
SPECI KSXT 231843Z AUTO VRB06KT 1 1/4SM BR SCT010 OVC019 08/08 A2997
RMK AO2 T00830083





000
SAUS46 KMFR 231834
MTRSXT
SPECI KSXT 231833Z AUTO VRB04KT 1SM BR BKN008 OVC021 08/08 A2997 RMK
AO2 T00830083





000
SAUS46 KMFR 231834
MTRSXT
SPECI KSXT 231833Z AUTO VRB04KT 1SM BR BKN008 OVC021 08/08 A2997 RMK
AO2 T00830083





000
SAUS46 KMFR 231826
MTRSXT
SPECI KSXT 231825Z AUTO VRB04KT 1/4SM FG VV005 08/08 A2997 RMK AO2
T00830083





000
SAUS46 KMFR 231826
MTRSXT
SPECI KSXT 231825Z AUTO VRB04KT 1/4SM FG VV005 08/08 A2997 RMK AO2
T00830083





000
SAUS46 KMFR 231821
MTRSXT
SPECI KSXT 231820Z AUTO VRB03KT 1/2SM FG VV003 08/08 A2997 RMK AO2
T00830083





000
SAUS46 KMFR 231821
MTRSXT
SPECI KSXT 231820Z AUTO VRB03KT 1/2SM FG VV003 08/08 A2997 RMK AO2
T00830083





000
SAUS46 KMFR 231757
MTRSXT
METAR KSXT 231756Z AUTO 33003KT 1/4SM FG VV002 08/08 A2996 RMK AO2
RAB34E43 SLP133 P0000 60050 T00830083 10094 20083 53013





000
SAUS46 KMFR 231757
MTRSXT
METAR KSXT 231756Z AUTO 33003KT 1/4SM FG VV002 08/08 A2996 RMK AO2
RAB34E43 SLP133 P0000 60050 T00830083 10094 20083 53013





000
SAUS46 KMFR 231737
MTRSXT
SPECI KSXT 231735Z AUTO 30004KT 1/4SM -RA FG VV004 08/08 A2994 RMK
AO2 RAB34 P0000 T00830083





000
SAUS46 KMFR 231718
MTRSXT
SPECI KSXT 231717Z AUTO 00000KT 1/4SM FG VV006 09/09 A2994 RMK AO2
T00890089





000
SAUS46 KMFR 231706
MTRSXT
SPECI KSXT 231705Z AUTO VRB03KT 1/2SM FG BKN005 OVC023 09/09 A2994
RMK AO2 T00890089





000
SAUS46 KMFR 231706
MTRSXT
SPECI KSXT 231705Z AUTO VRB03KT 1/2SM FG BKN005 OVC023 09/09 A2994
RMK AO2 T00890089





000
SAUS46 KMFR 231657
MTRSXT
METAR KSXT 231656Z AUTO 32004KT 1/4SM FG VV004 09/09 A2993 RMK AO2
RAB18E27 SLP124 P0001 T00890089





000
SAUS46 KMFR 231657
MTRSXT
METAR KSXT 231656Z AUTO 32004KT 1/4SM FG VV004 09/09 A2993 RMK AO2
RAB18E27 SLP124 P0001 T00890089





000
SAUS46 KMFR 231656
MTRSXT
SPECI KSXT 231654Z AUTO VRB04KT 1/4SM FG VV004 09/09 A2993 RMK AO2
RAB18E27 P0001





000
SAUS46 KMFR 231656
MTRSXT
SPECI KSXT 231654Z AUTO VRB04KT 1/4SM FG VV004 09/09 A2993 RMK AO2
RAB18E27 P0001





000
SAUS46 KMFR 231641
MTRSXT
SPECI KSXT 231640Z AUTO VRB04KT 1/4SM FG VV007 09/09 A2994 RMK AO2
RAB18E27 P0001 T00890089





000
SAUS46 KMFR 231641
MTRSXT
SPECI KSXT 231640Z AUTO VRB04KT 1/4SM FG VV007 09/09 A2994 RMK AO2
RAB18E27 P0001 T00890089





000
SAUS46 KMFR 231635
MTRSXT
SPECI KSXT 231633Z AUTO 00000KT 1/4SM FG BKN010 OVC015 09/09 A2994
RMK AO2 RAB18E27 P0000 T00890089





000
SAUS46 KMFR 231635
MTRSXT
SPECI KSXT 231633Z AUTO 00000KT 1/4SM FG BKN010 OVC015 09/09 A2994
RMK AO2 RAB18E27 P0000 T00890089





000
SAUS46 KMFR 231623
MTRSXT
SPECI KSXT 231622Z AUTO 00000KT 1/2SM -RA FG BKN018 OVC028 09/09
A2993 RMK AO2 RAB18 P0000 T00890089





000
SAUS46 KMFR 231600
MTRMHS
METAR KMHS 231556Z AUTO 10003KT 7SM -RA SCT034 BKN041 OVC049 09/07
A3007 RMK AO2 SLP194 P0006 T00890072





000
SAUS46 KMFR 231558
MTRSXT
METAR KSXT 231556Z AUTO 29003KT 1SM BR BKN018 BKN023 OVC033 09/09
A2992 RMK AO2 RAE52 SLP118 P0011 T00890089





000
SAUS46 KMFR 231553
MTRSXT
SPECI KSXT 231552Z AUTO VRB04KT 1/2SM FG BKN016 OVC023 09/09 A2991
RMK AO2 RAE52 P0011





000
SAUS46 KMFR 231544
MTRSXT
SPECI KSXT 231543Z AUTO VRB04KT 1/2SM -RA FG BKN006 OVC024 09/09
A2991 RMK AO2 P0011 T00890089





000
SAUS46 KMFR 231505
MTRSXT
SPECI KSXT 231503Z AUTO VRB04KT 1/4SM +RA FG VV002 09/09 A2990 RMK
AO2 P0006 T00940094





000
SAUS46 KMFR 231500
MTRMHS
METAR KMHS 231456Z AUTO VRB04KT 7SM -RA BKN018 OVC029 09/08 A3005
RMK AO2 SLP190 P0004 60011 T00890078 53013





000
SAUS46 KMFR 231457
MTRSXT
METAR KSXT 231456Z AUTO VRB04G18KT 1/4SM RA FG VV001 09/09 A2990 RMK
AO2 RAB1359 SLP112 P0018 60038 T00940094 53014





000
SAUS46 KMFR 231457
MTRSXT
METAR KSXT 231456Z AUTO VRB04G18KT 1/4SM RA FG VV001 09/09 A2990 RMK
AO2 RAB1359 SLP112 P0018 60038 T00940094 53014





000
SAUS46 KMFR 231423
MTRSXT
SPECI KSXT 231422Z AUTO 20013G22KT 1/4SM RA FG VV001 09/09 A2988 RMK
AO2 RAB1359 P0005 T00940094





000
SAUS46 KMFR 231423
MTRSXT
SPECI KSXT 231422Z AUTO 20013G22KT 1/4SM RA FG VV001 09/09 A2988 RMK
AO2 RAB1359 P0005 T00940094





000
SAUS46 KMFR 231415
MTRSXT
SPECI KSXT 231414Z AUTO 18012G20KT 1/4SM -RA FG VV002 09/09 A2988
RMK AO2 RAB1359 P0003 T00940094





000
SAUS46 KMFR 231357
MTRSXT
METAR KSXT 231356Z AUTO 18011G21KT 1/4SM FG VV001 09/09 A2988 RMK
AO2 RAE49 SLP103 P0007 T00940094





000
SAUS46 KMFR 231257
MTRSXT
METAR KSXT 231256Z AUTO 18012G20KT 1/4SM RA FG VV001 09/09 A2987 RMK
AO2 SLP100 P0013 T00940094





000
SAUS46 KMFR 231157
MTRSXT
METAR KSXT 231156Z AUTO 19010G19KT 1/4SM -RA FG VV001 09/09 A2986
RMK AO2 SLP097 P0010 60083 70124 T00940094 10094 20089 55003





000
SAUS46 KMFR 231100
MTRMHS
METAR KMHS 231056Z AUTO 00000KT 6SM -RA BR BKN050 OVC085 09/07 A3005
RMK AO2 SLP183 P0005 T00890072





000
SAUS46 KMFR 231058
MTRSXT
METAR KSXT 231056Z AUTO 19014G28KT 1/4SM -RA FG VV001 09/09 A2985
RMK AO2 PK WND 20032/1035 SLP093 P0020 T00940094





000
SAUS46 KMFR 231000
MTRMHS
METAR KMHS 230956Z AUTO VRB03KT 8SM -RA FEW050 OVC060 09/08 A3006
RMK AO2 SLP188 P0004 T00890078





000
SAUS46 KMFR 231000
MTRMHS
METAR KMHS 230956Z AUTO VRB03KT 8SM -RA FEW050 OVC060 09/08 A3006
RMK AO2 SLP188 P0004 T00890078





000
SAUS46 KMFR 230957
MTRSXT
METAR KSXT 230956Z AUTO 20013G24KT 1/4SM RA FG VV001 09/09 A2987 RMK
AO2 PK WND 22034/0920 SLP102 P0012 T00940094





000
SAUS46 KMFR 230957
MTRSXT
METAR KSXT 230956Z AUTO 20013G24KT 1/4SM RA FG VV001 09/09 A2987 RMK
AO2 PK WND 22034/0920 SLP102 P0012 T00940094





000
SAUS46 KMFR 230912
MTRSXT
SPECI KSXT 230910Z AUTO 21013G25KT 170V240 1/4SM -RA FG VV001 09/09
A2987 RMK AO2 P0003 T00940094





000
SAUS46 KMFR 230858
MTRSXT
METAR KSXT 230856Z AUTO 20016G25KT 1/4SM RA FG VV002 09/09 A2987 RMK
AO2 PK WND 23026/0843 SLP100 P0035 60041 T00940094 51008





000
SAUS46 KMFR 230813
MTRSXT
SPECI KSXT 230812Z AUTO 20010G19KT 1/4SM +RA FG VV002 09/09 A2987
RMK AO2 P0013 T00890089





000
SAUS46 KMFR 230813
MTRSXT
SPECI KSXT 230812Z AUTO 20010G19KT 1/4SM +RA FG VV002 09/09 A2987
RMK AO2 P0013 T00890089





000
SAUS46 KMFR 230757
MTRSXT
METAR KSXT 230756Z AUTO 18011G17KT 150V210 1/4SM -RA FG VV001 09/09
A2986 RMK AO2 PK WND 21026/0726 SLP099 P0003 T00890089 400890067





000
SAUS46 KMFR 230738
MTRSXT
SPECI KSXT 230737Z AUTO 20012G24KT 1/4SM -RA FG VV001 09/09 A2987
RMK AO2 PK WND 21026/0726 P0001 T00890089





000
SAUS46 KMFR 230705
MTRSXT
SPECI KSXT 230704Z AUTO 19012G29KT 1/4SM -RA FG BKN003 OVC007 09/09
A2987 RMK AO2 PK WND 19026/0658 P0001 T00890089





000
SAUS46 KMFR 230700
MTRSXT
SPECI KSXT 230659Z AUTO 20016G29KT 1SM -RA BR BKN003 OVC009 09/09
A2987 RMK AO2 PK WND 19026/0658 VIS 1/4V5 P0000 T00890089





000
SAUS46 KMFR 230657
MTRSXT
METAR KSXT 230656Z AUTO 20018G29KT 2 1/2SM -RA BR BKN005 OVC009
09/09 A2986 RMK AO2 PK WND 20038/0610 VIS 1 1/4V5 SLP101 P0003
T00890089





000
SAUS46 KMFR 230630
MTRSXT
SPECI KSXT 230629Z AUTO 18019G29KT 4SM -RA BR BKN006 OVC021 09/09
A2986 RMK AO2 PK WND 20038/0610 CIG 004V011 P0003 T00890089





000
SAUS46 KMFR 230626
MTRSXT
SPECI KSXT 230624Z AUTO 20017G32KT 3SM RA BR SCT006 SCT013 OVC021
09/09 A2985 RMK AO2 PK WND 20038/0610 P0002 T00890089





000
SAUS46 KMFR 230557
MTRSXT
METAR KSXT 230556Z AUTO 19021G36KT 10SM -RA BKN019 OVC025 09/09
A2984 RMK AO2 PK WND 19036/0556 RAB08E37B44 SLP096 P0002 60029
T00890089 10089 20089 56006





000
SAUS46 KMFR 230542
MTRSXT
SPECI KSXT 230541Z AUTO 19017G33KT 6SM BR FEW006 BKN023 OVC035 09/09
A2985 RMK AO2 PK WND 18033/0537 RAB08E37 P0002 T00890089





000
SAUS46 KMFR 230534
MTRSXT
SPECI KSXT 230533Z AUTO 19016G27KT 2SM -RA BR SCT004 BKN025 OVC035
09/09 A2985 RMK AO2 PK WND 18031/0509 VIS 3/4V5 RAB08 P0002
T00890089





000
SAUS46 KMFR 230532
MTRSXT
SPECI KSXT 230531Z AUTO 19015G27KT 1 1/4SM -RA BR SCT004 BKN025
OVC036 09/09 A2985 RMK AO2 PK WND 18031/0509 VIS 1/2V5 RAB08 P0002
T00890089





000
SAUS46 KMFR 230522
MTRSXT
SPECI KSXT 230520Z AUTO 20015G24KT 1/2SM -RA FG BKN004 BKN034 09/09
A2985 RMK AO2 PK WND 18031/0509 RAB08 P0001 T00890089





000
SAUS46 KMFR 230517
MTRSXT
SPECI KSXT 230516Z AUTO 20015G31KT 1/4SM -RA FG VV005 09/09 A2986
RMK AO2 PK WND 18031/0509 RAB08 P0001 T00890089





000
SAUS46 KMFR 230457
MTRSXT
METAR KSXT 230456Z AUTO 20017G33KT 3/4SM BR SCT003 BKN007 OVC010
09/09 A2985 RMK AO2 PK WND 21034/0432 RAE10B33E42 SLP099 P0001
T00890089





000
SAUS46 KMFR 230457
MTRSXT
METAR KSXT 230456Z AUTO 20017G33KT 3/4SM BR SCT003 BKN007 OVC010
09/09 A2985 RMK AO2 PK WND 21034/0432 RAE10B33E42 SLP099 P0001
T00890089





000
SAUS46 KMFR 230454
MTRSXT
SPECI KSXT 230453Z AUTO 19018G33KT 1SM BR SCT003 BKN010 OVC019 09/09
A2985 RMK AO2 PK WND 21034/0432 VIS 1/4V5 RAE10B33E42 P0001





000
SAUS46 KMFR 230454
MTRSXT
SPECI KSXT 230453Z AUTO 19018G33KT 1SM BR SCT003 BKN010 OVC019 09/09
A2985 RMK AO2 PK WND 21034/0432 VIS 1/4V5 RAE10B33E42 P0001





000
SAUS46 KMFR 230452
MTRSXT
SPECI KSXT 230451Z AUTO 20019G33KT 2SM BR SCT002 BKN012 OVC019 09/09
A2985 RMK AO2 PK WND 21034/0432 VIS 1/2V5 RAE10B33E42 P0001





000
SAUS46 KMFR 230452
MTRSXT
SPECI KSXT 230451Z AUTO 20019G33KT 2SM BR SCT002 BKN012 OVC019 09/09
A2985 RMK AO2 PK WND 21034/0432 VIS 1/2V5 RAE10B33E42 P0001





000
SAUS46 KMFR 230450
MTRSXT
SPECI KSXT 230449Z AUTO 19015G34KT 3SM BR SCT002 BKN008 OVC015 09/09
A2985 RMK AO2 PK WND 21034/0432 RAE10B33E42 P0001 T00890089





000
SAUS46 KMFR 230450
MTRSXT
SPECI KSXT 230449Z AUTO 19015G34KT 3SM BR SCT002 BKN008 OVC015 09/09
A2985 RMK AO2 PK WND 21034/0432 RAE10B33E42 P0001 T00890089





000
SAUS46 KMFR 230448
MTRSXT
SPECI KSXT 230447Z AUTO 20019G34KT 2SM BR SCT002 BKN009 OVC018 09/09
A2985 RMK AO2 PK WND 21034/0432 VIS 1/2V5 RAE10B33E42 P0001
T00890089





000
SAUS46 KMFR 230448
MTRSXT
SPECI KSXT 230447Z AUTO 20019G34KT 2SM BR SCT002 BKN009 OVC018 09/09
A2985 RMK AO2 PK WND 21034/0432 VIS 1/2V5 RAE10B33E42 P0001
T00890089





000
SAUS46 KMFR 230446
MTRSXT
SPECI KSXT 230445Z AUTO 20020G34KT 1 1/4SM BR BKN002 BKN007 OVC018
09/09 A2985 RMK AO2 PK WND 21034/0432 RAE10B33E42 P0001 T00890089





000
SAUS46 KMFR 230446
MTRSXT
SPECI KSXT 230445Z AUTO 20020G34KT 1 1/4SM BR BKN002 BKN007 OVC018
09/09 A2985 RMK AO2 PK WND 21034/0432 RAE10B33E42 P0001 T00890089





000
SAUS46 KMFR 230438
MTRSXT
SPECI KSXT 230437Z AUTO 19018G34KT 1 1/2SM -RA BR BKN002 BKN007
OVC017 09/09 A2985 RMK AO2 PK WND 21034/0432 VIS 3/4V5 RAE10B33
P0001 T00890089





000
SAUS46 KMFR 230438
MTRSXT
SPECI KSXT 230437Z AUTO 19018G34KT 1 1/2SM -RA BR BKN002 BKN007
OVC017 09/09 A2985 RMK AO2 PK WND 21034/0432 VIS 3/4V5 RAE10B33
P0001 T00890089





000
SAUS46 KMFR 230430
MTRSXT
SPECI KSXT 230429Z AUTO 20019G33KT 160V220 1/2SM FG BKN002 OVC019
09/09 A2985 RMK AO2 PK WND 19033/0429 RAE10 P0001 T00890089





000
SAUS46 KMFR 230430
MTRSXT
SPECI KSXT 230429Z AUTO 20019G33KT 160V220 1/2SM FG BKN002 OVC019
09/09 A2985 RMK AO2 PK WND 19033/0429 RAE10 P0001 T00890089





000
SAUS46 KMFR 230400
MTRMHS
METAR KMHS 230356Z AUTO 00000KT 10SM -RA BKN029 OVC044 09/06 A3004
RMK AO2 RAB26 SLP186 P0000 T00940056





000
SAUS46 KMFR 230400
MTRMHS
METAR KMHS 230356Z AUTO 00000KT 10SM -RA BKN029 OVC044 09/06 A3004
RMK AO2 RAB26 SLP186 P0000 T00940056





000
SAUS46 KMFR 230357
MTRSXT
METAR KSXT 230356Z AUTO 19020G31KT 1/4SM RA FG VV001 09/09 A2985 RMK
AO2 PK WND 18033/0331 RAE35B48 SLP097 P0005 T00890089





000
SAUS46 KMFR 230357
MTRSXT
METAR KSXT 230356Z AUTO 19020G31KT 1/4SM RA FG VV001 09/09 A2985 RMK
AO2 PK WND 18033/0331 RAE35B48 SLP097 P0005 T00890089





000
SAUS46 KMFR 230354
MTRSXT
SPECI KSXT 230353Z AUTO 20016G31KT 1/4SM -RA FG VV001 09/09 A2986
RMK AO2 PK WND 18033/0331 RAE35B48 P0004





000
SAUS46 KMFR 230354
MTRSXT
SPECI KSXT 230353Z AUTO 20016G31KT 1/4SM -RA FG VV001 09/09 A2986
RMK AO2 PK WND 18033/0331 RAE35B48 P0004





000
SAUS46 KMFR 230344
MTRSXT
SPECI KSXT 230343Z AUTO 20014G31KT 1/4SM FG VV002 09/09 A2986 RMK
AO2 PK WND 18033/0331 RAE35 P0003 T00890089





000
SAUS46 KMFR 230344
MTRSXT
SPECI KSXT 230343Z AUTO 20014G31KT 1/4SM FG VV002 09/09 A2986 RMK
AO2 PK WND 18033/0331 RAE35 P0003 T00890089





000
SAUS46 KMFR 230257
MTRSXT
METAR KSXT 230256Z AUTO 20013G24KT M1/4SM -RA FG VV001 09/09 A2987
RMK AO2 PK WND 19031/0221 SLP104 P0009 60021 T00890089 50001





000
SAUS46 KMFR 230200
MTRMHS
METAR KMHS 230156Z AUTO VRB04KT 10SM BKN039 BKN049 OVC090 11/04
A3003 RMK AO2 SLP182 T01110044





000
SAUS46 KMFR 230200
MTRMHS
METAR KMHS 230156Z AUTO VRB04KT 10SM BKN039 BKN049 OVC090 11/04
A3003 RMK AO2 SLP182 T01110044





000
SAUS46 KMFR 230157
MTRSXT
METAR KSXT 230156Z AUTO 21019G27KT M1/4SM RA FG VV001 09/09 A2988
RMK AO2 PK WND 20030/0110 SLP108 P0008 T00890089





000
SAUS46 KMFR 230157
MTRSXT
METAR KSXT 230156Z AUTO 21019G27KT M1/4SM RA FG VV001 09/09 A2988
RMK AO2 PK WND 20030/0110 SLP108 P0008 T00890089





000
SAUS46 KMFR 230057
MTRSXT
METAR KSXT 230056Z AUTO 20017G32KT 1/4SM -RA FG VV001 09/09 A2986
RMK AO2 PK WND 20037/0045 SLP104 P0004 T00890089





000
SAUS46 KMFR 230057
MTRSXT
METAR KSXT 230056Z AUTO 20017G32KT 1/4SM -RA FG VV001 09/09 A2986
RMK AO2 PK WND 20037/0045 SLP104 P0004 T00890089





000
SAUS46 KMFR 230026
MTRSXT
SPECI KSXT 230024Z AUTO 21017G29KT 1/4SM -RA FG BKN003 OVC006 09/09
A2986 RMK AO2 PK WND 21033/2359 P0001 T00890089





000
SAUS46 KMFR 230026
MTRSXT
SPECI KSXT 230024Z AUTO 21017G29KT 1/4SM -RA FG BKN003 OVC006 09/09
A2986 RMK AO2 PK WND 21033/2359 P0001 T00890089





000
SAUS46 KMFR 230018
MTRSXT
SPECI KSXT 230017Z AUTO 21015G26KT 1/2SM -RA FG BKN003 OVC008 09/09
A2986 RMK AO2 PK WND 21033/2359 P0000 T00890089





000
SAUS46 KMFR 230018
MTRSXT
SPECI KSXT 230017Z AUTO 21015G26KT 1/2SM -RA FG BKN003 OVC008 09/09
A2986 RMK AO2 PK WND 21033/2359 P0000 T00890089





000
SAUS46 KMFR 230016
MTRSXT
SPECI KSXT 230015Z AUTO 21017G29KT 1SM -RA BR BKN005 OVC008 09/09
A2987 RMK AO2 PK WND 21033/2359 P0000 T00890089





000
SAUS46 KMFR 230016
MTRSXT
SPECI KSXT 230015Z AUTO 21017G29KT 1SM -RA BR BKN005 OVC008 09/09
A2987 RMK AO2 PK WND 21033/2359 P0000 T00890089





000
SAUS46 KMFR 222357
MTRSXT
METAR KSXT 222356Z AUTO 21019G32KT 10SM -RA BKN007 OVC012 09/08
A2986 RMK AO2 PK WND 21034/2336 RAB24 CIG 004V008 SLP103 P0000 60008
T00890083 10089 20072 56003





000
SAUS46 KMFR 222357
MTRSXT
METAR KSXT 222356Z AUTO 21019G32KT 10SM -RA BKN007 OVC012 09/08
A2986 RMK AO2 PK WND 21034/2336 RAB24 CIG 004V008 SLP103 P0000 60008
T00890083 10089 20072 56003





000
SAUS46 KMFR 222258
MTRSXT
METAR KSXT 222256Z AUTO 18019G35KT 10SM OVC007 09/09 A2987 RMK AO2
PK WND 22043/2220 RAB03E12 CIG 004V013 SLP105 P0000 T00890089





000
SAUS46 KMFR 222258
MTRSXT
METAR KSXT 222256Z AUTO 18019G35KT 10SM OVC007 09/09 A2987 RMK AO2
PK WND 22043/2220 RAB03E12 CIG 004V013 SLP105 P0000 T00890089





000
SAUS46 KMFR 222212
MTRSXT
SPECI KSXT 222211Z AUTO 18022G34KT 10SM -RA FEW002 BKN007 OVC011
09/09 A2985 RMK AO2 PK WND 21034/2202 RAB03 P0000 T00890089





000
SAUS46 KMFR 222212
MTRSXT
SPECI KSXT 222211Z AUTO 18022G34KT 10SM -RA FEW002 BKN007 OVC011
09/09 A2985 RMK AO2 PK WND 21034/2202 RAB03 P0000 T00890089





000
SAUS46 KMFR 222200
MTRMHS
METAR KMHS 222156Z AUTO VRB03KT 10SM BKN040 BKN080 OVC090 12/06
A3004 RMK AO2 SLP185 T01220061





000
SAUS46 KMFR 222159
MTRSXT
SPECI KSXT 222158Z AUTO 18019G40KT 4SM BR BKN003 OVC009 09/09 A2986
RMK AO2 PK WND 18032/2157 T00890089





000
SAUS46 KMFR 222158
MTRSXT
METAR KSXT 222156Z AUTO 18018G40KT 1 1/2SM BR BKN003 OVC009 09/09
A2985 RMK AO2 PK WND 19040/2150 VIS 1/2V5 RAE03B37E47 SLP099 P0001
T00890089





000
SAUS46 KMFR 222155
MTRSXT
SPECI KSXT 222154Z AUTO 19021G40KT 1SM BR BKN003 OVC009 09/09 A2985
RMK AO2 PK WND 19040/2150 RAE03B37E47 P0001





000
SAUS46 KMFR 222139
MTRSXT
SPECI KSXT 222138Z AUTO 19017G33KT 1/4SM -RA FG VV002 09/09 A2986
RMK AO2 PK WND 19036/2123 RAE03B37 P0000 T00890089





    US Dept of Commerce
    National Oceanic and Atmospheric Administration
    National Weather Service
    1325 East West Highway
    Silver Spring, MD 20910
    Page Author: NWS Internet Services Team
Disclaimer
Information Quality
Credits
Glossary
Privacy Policy
Freedom of Information Act (FOIA)
About Us
Career Opportunities